Time;durP1;ratioP1;P1;durP2;ratioP2;P2;SDS_P1;SDS_P2;PMS_P1;PMS_P2;Temp;Humidity;BMP_temperature;BMP_pressure;BME280_temperature;BME280_humidity;BME280_pressure;Samples;Min_cycle;Max_cycle;Signal;HPM_P1;HPM_P2
2022/05/29 00:01:47;;;;;;;;;;;;;;;12.85;46.18;100726.19;5039457;28;6776;-76
2022/05/29 00:04:13;;;;;;;;;;;;;;;12.81;46.77;100721.72;5015381;28;6804;-76
2022/05/29 00:06:42;;;;;;;;;;;;;;;12.78;46.08;100726.72;5007595;28;6815;-76
2022/05/29 00:09:13;;;;;;;;;;;;;;;12.75;46.19;100718.88;5040826;28;6827;-76
2022/05/29 00:11:39;;;;;;;;;;;;;;;12.71;47.07;100724.69;4996107;28;7076;-76
2022/05/29 00:14:05;;;;;;;;;;;;;;;12.65;46.31;100725.31;5032175;28;8423;-76
2022/05/29 00:16:32;;;;;;;;;;;;;;;12.59;46.38;100720.75;5009337;28;6851;-76
2022/05/29 00:18:58;;;;;;;;;;;;;;;12.54;47.21;100718.81;5015267;28;6800;-76
2022/05/29 00:21:24;;;;;;;;;;;;;;;12.50;46.38;100712.63;5034560;28;6807;-76
2022/05/29 00:23:50;;;;;;;;;;;;;;;12.44;47.14;100709.78;5024023;28;6882;-76
2022/05/29 00:26:18;;;;;;;;;;;;;;;12.36;46.97;100709.44;5016453;28;6816;-76
2022/05/29 00:28:44;;;;;;;;;;;;;;;12.28;47.27;100703.97;5024235;28;6796;-76
2022/05/29 00:31:12;;;;;;;;;;;;;;;12.21;47.63;100704.47;5019667;28;7125;-76
2022/05/29 00:33:39;;;;;;;;;;;;;;;12.12;47.02;100698.91;5023413;28;7358;-76
2022/05/29 00:36:06;;;;;;;;;;;;;;;12.04;47.42;100699.44;5004929;28;7931;-76
2022/05/29 00:38:40;;;;;;;;;;;;;;;11.93;47.89;100698.91;5038248;28;6886;-76
2022/05/29 00:41:24;;;;;;;;;;;;;;;11.85;48.06;100709.59;5020049;28;6808;-76
2022/05/29 00:44:21;;;;;;;;;;;;;;;11.76;48.46;100700.66;5025270;28;6965;-76
2022/05/29 00:46:54;;;;;;;;;;;;;;;11.71;48.08;100701.25;5022666;28;6975;-76
2022/05/29 00:49:28;;;;;;;;;;;;;;;11.66;48.28;100693.31;5021861;28;7919;-76
2022/05/29 00:52:16;;;;;;;;;;;;;;;11.62;48.63;100691.44;5021133;28;6966;-76
2022/05/29 00:55:05;;;;;;;;;;;;;;;11.57;48.67;100693.75;5009837;28;6993;-76
2022/05/29 00:57:40;;;;;;;;;;;;;;;11.50;48.55;100697.72;5019073;28;8455;-76
2022/05/29 01:00:07;;;;;;;;;;;;;;;11.47;48.80;100691.56;5005974;28;6812;-76
2022/05/29 01:02:33;;;;;;;;;;;;;;;11.43;49.16;100695.66;5038830;28;6831;-76
2022/05/29 01:04:59;;;;;;;;;;;;;;;11.37;49.24;100691.09;5028844;28;7358;-76
2022/05/29 01:07:29;;;;;;;;;;;;;;;11.34;49.07;100687.50;5003889;28;8889;-76
2022/05/29 01:09:55;;;;;;;;;;;;;;;11.31;49.00;100685.66;5037615;28;6807;-76
2022/05/29 01:12:48;;;;;;;;;;;;;;;11.29;49.64;100686.38;5034488;28;6953;-76
2022/05/29 01:15:36;;;;;;;;;;;;;;;11.24;49.60;100684.47;5021608;28;6979;-76
2022/05/29 01:18:19;;;;;;;;;;;;;;;11.21;49.80;100674.06;5017869;28;7314;-76
2022/05/29 01:21:29;;;;;;;;;;;;;;;11.21;49.78;100680.88;5022264;28;7295;-76
2022/05/29 01:24:15;;;;;;;;;;;;;;;11.17;49.84;100689.25;5024368;28;8348;-76
2022/05/29 01:27:34;;;;;;;;;;;;;;;11.13;50.12;100680.50;5022827;28;6907;-76
2022/05/29 01:30:05;;;;;;;;;;;;;;;11.13;50.15;100680.50;4981938;28;6815;-76
2022/05/29 01:32:33;;;;;;;;;;;;;;;11.11;50.11;100680.41;4997732;28;6800;-76
2022/05/29 01:35:13;;;;;;;;;;;;;;;11.11;50.03;100682.13;4981036;28;8626;-76
2022/05/29 01:37:59;;;;;;;;;;;;;;;11.08;50.56;100677.72;5008786;28;6804;-76
2022/05/29 01:40:40;;;;;;;;;;;;;;;11.07;50.70;100677.63;5028469;28;6820;-76
2022/05/29 01:43:36;;;;;;;;;;;;;;;11.03;50.23;100671.44;5014995;28;6994;-76
2022/05/29 01:46:11;;;;;;;;;;;;;;;11.01;50.39;100669.59;5034612;28;6887;-76
2022/05/29 01:49:18;;;;;;;;;;;;;;;10.98;50.19;100670.34;5034239;28;6904;-76
2022/05/29 01:51:54;;;;;;;;;;;;;;;10.89;51.30;100665.63;5027795;28;6816;-76
2022/05/29 01:54:24;;;;;;;;;;;;;;;10.85;50.84;100661.16;5036759;28;6843;-76
2022/05/29 01:56:57;;;;;;;;;;;;;;;10.84;50.71;100656.84;5039082;28;6879;-76
2022/05/29 01:59:47;;;;;;;;;;;;;;;10.89;51.36;100650.22;4995590;28;6903;-76
2022/05/29 02:02:24;;;;;;;;;;;;;;;10.86;51.44;100650.09;5018528;28;7049;-76
2022/05/29 02:04:56;;;;;;;;;;;;;;;10.89;51.29;100650.22;5034594;28;6804;-76
2022/05/29 02:10:37;;;;;;;;;;;;;;;10.84;51.59;100649.13;4982638;28;7161;-76
2022/05/29 02:13:13;;;;;;;;;;;;;;;10.81;51.33;100648.97;5038346;28;7064;-76
2022/05/29 02:15:51;;;;;;;;;;;;;;;10.78;51.19;100656.50;5035565;28;7860;-76
2022/05/29 02:18:31;;;;;;;;;;;;;;;10.76;50.98;100642.72;5031427;28;6807;-76
2022/05/29 02:21:08;;;;;;;;;;;;;;;10.73;51.29;100648.56;5022611;28;7944;-76
2022/05/29 02:23:43;;;;;;;;;;;;;;;10.70;51.49;100643.31;5036231;28;7242;-76
2022/05/29 02:26:19;;;;;;;;;;;;;;;10.66;50.94;100647.38;5002015;28;6986;-76
2022/05/29 02:28:52;;;;;;;;;;;;;;;10.65;51.15;100643.06;5018559;28;8581;-76
2022/05/29 02:31:31;;;;;;;;;;;;;;;10.63;51.39;100637.00;5035235;28;6899;-76
2022/05/29 02:34:40;;;;;;;;;;;;;;;10.61;52.20;100641.13;5026954;28;6863;-76
2022/05/29 02:37:45;;;;;;;;;;;;;;;10.60;51.65;100641.94;5006983;28;7042;-76
2022/05/29 02:40:46;;;;;;;;;;;;;;;10.60;51.93;100631.69;5014402;28;6815;-76
2022/05/29 02:43:49;;;;;;;;;;;;;;;10.62;52.77;100635.22;4999361;28;7034;-77
2022/05/29 02:46:54;;;;;;;;;;;;;;;10.62;51.91;100630.09;5014654;28;8513;-76
2022/05/29 02:49:37;;;;;;;;;;;;;;;10.61;51.84;100628.31;4989550;28;6820;-76
2022/05/29 02:52:11;;;;;;;;;;;;;;;10.59;51.93;100629.06;5025462;28;6887;-76
2022/05/29 02:54:37;;;;;;;;;;;;;;;10.58;52.74;100623.03;5001734;28;6819;-76
2022/05/29 02:57:04;;;;;;;;;;;;;;;10.56;52.74;100622.94;5033256;28;6783;-76
2022/05/29 02:59:44;;;;;;;;;;;;;;;10.59;52.96;100619.66;5037835;28;6804;-76
2022/05/29 03:02:41;;;;;;;;;;;;;;;10.60;52.80;100629.13;5029724;28;6884;-76
2022/05/29 03:06:01;;;;;;;;;;;;;;;10.56;52.58;100617.81;5016645;28;7271;-76
2022/05/29 03:09:13;;;;;;;;;;;;;;;10.58;52.74;100617.91;4972419;28;8901;-75
2022/05/29 03:11:46;;;;;;;;;;;;;;;10.61;52.77;100617.19;5014197;28;6828;-75
2022/05/29 03:14:43;;;;;;;;;;;;;;;10.61;53.39;100624.88;5035060;28;7201;-75
2022/05/29 03:18:03;;;;;;;;;;;;;;;10.67;53.45;100618.38;5003907;28;7221;-75
2022/05/29 03:20:41;;;;;;;;;;;;;;;10.72;53.56;100625.41;5027672;28;8457;-76
2022/05/29 03:23:53;;;;;;;;;;;;;;;10.79;53.12;100628.38;5021899;28;8049;-76
2022/05/29 03:26:54;;;;;;;;;;;;;;;10.91;53.89;100627.25;5020010;28;6902;-76
2022/05/29 03:29:51;;;;;;;;;;;;;;;11.00;53.41;100626.81;5019468;28;6816;-76
2022/05/29 03:32:19;;;;;;;;;;;;;;;11.10;53.58;100618.75;5030642;28;7105;-76
2022/05/29 03:34:45;;;;;;;;;;;;;;;11.19;53.91;100619.22;5022737;28;7085;-76
2022/05/29 03:37:11;;;;;;;;;;;;;;;11.29;53.62;100617.09;5019367;28;7151;-76
2022/05/29 03:39:37;;;;;;;;;;;;;;;11.34;53.30;100618.22;5037274;28;7005;-76
2022/05/29 03:42:05;;;;;;;;;;;;;;;11.38;53.62;100613.31;5033678;28;6860;-76
2022/05/29 03:44:30;;;;;;;;;;;;;;;11.42;53.13;100609.22;5017979;28;7049;-76
2022/05/29 03:46:56;;;;;;;;;;;;;;;11.44;53.56;100620.41;5013258;28;7039;-76
2022/05/29 03:49:24;;;;;;;;;;;;;;;11.50;53.92;100612.13;5012899;28;6982;-76
2022/05/29 03:51:50;;;;;;;;;;;;;;;11.58;53.50;100608.25;5029839;28;6792;-76
2022/05/29 03:54:16;;;;;;;;;;;;;;;11.66;53.77;100604.34;5000952;28;6795;-76
2022/05/29 03:56:42;;;;;;;;;;;;;;;11.75;53.45;100611.59;5038503;28;7168;-76
2022/05/29 03:59:08;;;;;;;;;;;;;;;11.82;53.76;100605.03;5022434;28;6792;-76
2022/05/29 04:01:35;;;;;;;;;;;;;;;11.93;53.31;100608.13;5012801;28;7291;-76
2022/05/29 04:04:01;;;;;;;;;;;;;;;12.00;53.42;100605.03;5029023;28;7652;-76
2022/05/29 04:06:28;;;;;;;;;;;;;;;12.08;53.42;100601.16;5032665;28;6812;-76
2022/05/29 04:14:28;;;;;;;;;;;;;;;12.30;53.39;100602.09;5022563;28;6915;-76
2022/05/29 04:16:53;;;;;;;;;;;;;;;12.36;53.64;100592.09;5031570;28;7716;-77
2022/05/29 04:19:19;;;;;;;;;;;;;;;12.45;53.21;100589.03;5032278;28;7627;-77
2022/05/29 04:21:46;;;;;;;;;;;;;;;12.52;53.32;100582.47;5025190;28;6799;-77
2022/05/29 04:24:12;;;;;;;;;;;;;;;12.57;52.88;100586.13;5006791;28;7145;-77
2022/05/29 04:26:38;;;;;;;;;;;;;;;12.63;53.56;100588.06;5011368;28;6787;-77
2022/05/29 04:29:05;;;;;;;;;;;;;;;12.69;52.95;100584.88;5018051;28;7535;-77
2022/05/29 04:31:33;;;;;;;;;;;;;;;12.74;53.45;100573.97;5034162;28;6808;-77
2022/05/29 04:33:58;;;;;;;;;;;;;;;12.82;52.94;100573.41;4991517;28;8524;-77
2022/05/29 04:36:25;;;;;;;;;;;;;;;12.90;52.91;100572.06;5017780;28;7967;-77
2022/05/29 04:38:52;;;;;;;;;;;;;;;12.99;53.02;100571.53;5036540;28;7860;-77
2022/05/29 04:41:24;;;;;;;;;;;;;;;13.07;53.39;100572.72;5035888;28;6835;-77
2022/05/29 04:43:52;;;;;;;;;;;;;;;13.16;53.03;100570.53;5032865;28;7317;-77
2022/05/29 04:46:18;;;;;;;;;;;;;;;13.26;53.11;100573.47;5005891;28;6799;-75
2022/05/29 04:48:44;;;;;;;;;;;;;;;13.33;52.20;100563.47;5020548;28;7578;-75
2022/05/29 04:51:09;;;;;;;;;;;;;;;13.43;52.61;100564.72;5024443;28;8717;-77
2022/05/29 04:53:36;;;;;;;;;;;;;;;13.55;52.73;100573.78;5028731;28;6862;-77
2022/05/29 04:56:03;;;;;;;;;;;;;;;13.62;52.29;100568.03;5025525;28;7909;-77
2022/05/29 04:58:30;;;;;;;;;;;;;;;13.71;51.92;100563.25;5026186;28;9805;-77
2022/05/29 05:01:01;;;;;;;;;;;;;;;13.82;52.82;100570.50;5038791;28;8242;-77
2022/05/29 05:03:29;;;;;;;;;;;;;;;13.92;51.92;100567.44;5032514;28;7229;-77
2022/05/29 05:05:55;;;;;;;;;;;;;;;14.01;51.94;100566.88;5024599;28;8447;-76
2022/05/29 05:08:21;;;;;;;;;;;;;;;14.09;52.08;100564.56;5029571;28;7879;-76
2022/05/29 05:10:46;;;;;;;;;;;;;;;14.15;52.06;100554.50;5036439;28;7264;-76
2022/05/29 05:13:12;;;;;;;;;;;;;;;14.25;52.13;100566.88;5004166;28;6791;-76
2022/05/29 05:15:38;;;;;;;;;;;;;;;14.33;51.97;100553.41;5029507;28;6855;-76
2022/05/29 05:18:04;;;;;;;;;;;;;;;14.40;51.09;100555.38;5036167;28;6985;-76
2022/05/29 05:20:30;;;;;;;;;;;;;;;14.50;51.62;100552.28;5019756;28;9727;-77
2022/05/29 05:22:57;;;;;;;;;;;;;;;14.61;50.84;100554.34;5022780;28;6816;-77
2022/05/29 05:25:23;;;;;;;;;;;;;;;14.72;51.55;100550.44;5022307;28;6796;-77
2022/05/29 05:27:49;;;;;;;;;;;;;;;14.83;51.10;100545.66;5033546;28;6804;-77
2022/05/29 05:30:15;;;;;;;;;;;;;;;14.95;51.09;100555.50;5002194;28;7270;-77
2022/05/29 05:32:41;;;;;;;;;;;;;;;15.07;51.21;100555.03;5016253;28;6926;-77
2022/05/29 05:35:08;;;;;;;;;;;;;;;15.20;51.23;100549.41;5021533;28;6800;-76
2022/05/29 05:37:35;;;;;;;;;;;;;;;15.35;50.39;100541.25;5025761;28;8318;-76
2022/05/29 05:40:09;;;;;;;;;;;;;;;15.47;50.40;100543.34;4993685;28;6980;-76
2022/05/29 05:42:35;;;;;;;;;;;;;;;15.54;49.31;100552.16;5015608;28;7631;-77
2022/05/29 05:45:01;;;;;;;;;;;;;;;15.57;49.43;100549.69;5017536;28;6784;-76
2022/05/29 05:47:26;;;;;;;;;;;;;;;15.57;49.90;100549.69;5022357;28;6803;-76
2022/05/29 05:49:52;;;;;;;;;;;;;;;15.57;49.59;100552.25;5039387;28;6862;-76
2022/05/29 05:52:18;;;;;;;;;;;;;;;15.58;49.58;100551.44;5021046;28;6795;-76
2022/05/29 05:54:44;;;;;;;;;;;;;;;15.59;49.73;100554.88;4997829;28;7368;-76
2022/05/29 05:57:11;;;;;;;;;;;;;;;15.62;49.14;100550.66;4998479;28;7018;-76
2022/05/29 05:59:39;;;;;;;;;;;;;;;15.67;49.49;100549.13;5018018;28;6812;-77
2022/05/29 06:02:11;;;;;;;;;;;;;;;15.75;49.32;100548.47;5039364;28;7071;-76
2022/05/29 06:04:43;;;;;;;;;;;;;;;15.84;49.69;100543.56;5005399;28;7745;-76
2022/05/29 06:07:09;;;;;;;;;;;;;;;15.96;49.17;100555.97;5020054;28;8460;-76
2022/05/29 06:09:36;;;;;;;;;;;;;;;16.06;49.38;100546.78;5017961;28;6888;-77
2022/05/29 06:12:03;;;;;;;;;;;;;;;16.17;49.10;100547.94;5031312;28;7014;-77
2022/05/29 06:14:30;;;;;;;;;;;;;;;16.29;48.78;100550.00;5034138;28;6898;-77
2022/05/29 06:16:58;;;;;;;;;;;;;;;16.39;48.53;100545.94;5037708;28;6803;-77
2022/05/29 06:19:24;;;;;;;;;;;;;;;16.47;48.61;100541.00;5029742;28;7928;-77
2022/05/29 06:21:49;;;;;;;;;;;;;;;16.55;48.23;100546.34;5035473;28;7184;-76
2022/05/29 06:24:15;;;;;;;;;;;;;;;16.56;47.81;100542.91;5039405;28;6779;-76
2022/05/29 06:26:41;;;;;;;;;;;;;;;16.49;47.89;100542.75;5026783;28;7156;-77
2022/05/29 06:29:08;;;;;;;;;;;;;;;16.36;47.87;100545.88;5032895;28;6807;-77
2022/05/29 06:31:33;;;;;;;;;;;;;;;16.18;48.25;100554.88;5015177;28;8596;-77
2022/05/29 06:33:59;;;;;;;;;;;;;;;16.01;48.20;100558.69;4997241;28;8698;-77
2022/05/29 06:36:25;;;;;;;;;;;;;;;15.86;48.53;100553.94;5013141;28;6823;-77
2022/05/29 06:38:54;;;;;;;;;;;;;;;15.73;49.33;100548.41;5028086;28;6903;-77
2022/05/29 06:41:23;;;;;;;;;;;;;;;15.60;49.46;100552.34;5027387;28;6987;-77
2022/05/29 06:43:52;;;;;;;;;;;;;;;15.50;49.60;100545.16;5002679;28;6812;-77
2022/05/29 06:46:20;;;;;;;;;;;;;;;15.45;49.76;100551.88;5008777;28;8056;-76
2022/05/29 06:48:46;;;;;;;;;;;;;;;15.41;50.45;100546.63;5035716;28;6816;-76
2022/05/29 06:51:22;;;;;;;;;;;;;;;15.44;50.48;100542.38;5037911;28;6883;-77
2022/05/29 06:53:55;;;;;;;;;;;;;;;15.49;50.51;100549.41;5035762;28;8507;-76
2022/05/29 06:56:23;;;;;;;;;;;;;;;15.62;50.68;100549.81;5025403;28;7671;-76
2022/05/29 06:58:49;;;;;;;;;;;;;;;15.77;50.85;100541.63;5000005;28;6820;-75
2022/05/29 07:07:01;;;;;;;;;;;;;;;16.08;50.39;100547.69;5001620;28;6900;-75
2022/05/29 07:09:31;;;;;;;;;;;;;;;16.12;50.35;100544.34;5017780;28;6812;-76
2022/05/29 07:12:13;;;;;;;;;;;;;;;16.13;50.34;100540.06;5013389;28;6820;-77
2022/05/29 07:14:46;;;;;;;;;;;;;;;16.14;50.56;100547.88;4999687;28;8069;-76
2022/05/29 07:17:11;;;;;;;;;;;;;;;16.15;51.06;100547.03;5016511;28;6819;-76
2022/05/29 07:19:38;;;;;;;;;;;;;;;16.19;50.33;100541.09;5017783;28;6871;-76
2022/05/29 07:22:04;;;;;;;;;;;;;;;16.26;50.56;100543.88;5006185;28;6800;-76
2022/05/29 07:24:35;;;;;;;;;;;;;;;16.38;50.94;100539.00;5018431;28;6935;-76
2022/05/29 07:27:01;;;;;;;;;;;;;;;16.54;50.72;100545.47;5009193;28;6831;-77
2022/05/29 07:29:27;;;;;;;;;;;;;;;16.69;50.71;100544.13;5039508;28;7144;-77
2022/05/29 07:31:54;;;;;;;;;;;;;;;16.76;49.73;100546.88;5022852;28;6950;-77
2022/05/29 07:34:21;;;;;;;;;;;;;;;16.85;50.00;100537.59;5038437;28;8333;-77
2022/05/29 07:36:49;;;;;;;;;;;;;;;16.87;49.41;100533.31;5014545;28;7278;-76
2022/05/29 07:39:16;;;;;;;;;;;;;;;16.85;49.17;100540.19;5024960;28;6929;-76
2022/05/29 07:44:25;;;;;;;;;;;;;;;16.79;49.54;100536.59;5010135;28;6903;-77
2022/05/29 07:46:51;;;;;;;;;;;;;;;16.85;49.77;100545.38;5015660;28;6991;-77
2022/05/29 07:49:17;;;;;;;;;;;;;;;16.89;49.79;100542.00;5013972;28;6808;-77
2022/05/29 07:51:42;;;;;;;;;;;;;;;16.88;49.28;100546.31;5022250;28;7209;-77
2022/05/29 07:54:08;;;;;;;;;;;;;;;16.86;49.33;100542.81;5041408;28;7620;-77
2022/05/29 07:56:34;;;;;;;;;;;;;;;16.91;49.17;100545.53;4991540;28;6780;-77
2022/05/29 07:59:00;;;;;;;;;;;;;;;17.03;49.45;100542.38;5033876;28;6971;-77
2022/05/29 08:01:26;;;;;;;;;;;;;;;17.18;49.03;100547.03;5039383;28;8047;-77
2022/05/29 08:03:52;;;;;;;;;;;;;;;17.29;49.18;100548.19;5044636;28;8445;-77
2022/05/29 08:06:17;;;;;;;;;;;;;;;17.39;48.80;100543.19;5031378;28;6867;-77
2022/05/29 08:08:43;;;;;;;;;;;;;;;17.46;48.76;100552.84;5020443;28;6779;-77
2022/05/29 08:11:09;;;;;;;;;;;;;;;17.56;48.83;100549.59;5038911;28;7743;-77
2022/05/29 08:13:35;;;;;;;;;;;;;;;17.67;48.55;100541.19;5035619;28;7058;-77
2022/05/29 08:16:05;;;;;;;;;;;;;;;17.93;49.21;100543.44;5006288;28;6831;-77
2022/05/29 08:18:31;;;;;;;;;;;;;;;18.29;48.25;100540.72;5036273;28;6957;-77
2022/05/29 08:20:56;;;;;;;;;;;;;;;18.67;48.15;100531.88;5023553;28;6799;-77
2022/05/29 08:23:23;;;;;;;;;;;;;;;19.23;48.33;100532.78;5026704;28;6874;-77
2022/05/29 08:31:20;;;;;;;;;;;;;;;20.49;45.19;100525.59;5041024;28;6820;-77
2022/05/29 08:33:47;;;;;;;;;;;;;;;20.47;44.23;100517.75;5042010;28;6779;-77
2022/05/29 08:36:18;;;;;;;;;;;;;;;20.49;44.20;100520.38;5038986;28;7018;-77
2022/05/29 08:38:47;;;;;;;;;;;;;;;20.58;44.27;100511.75;5026362;28;7192;-77
2022/05/29 08:41:34;;;;;;;;;;;;;;;20.82;43.67;100513.72;5008591;28;7217;-77
2022/05/29 08:44:17;;;;;;;;;;;;;;;20.93;42.82;100511.19;5040714;28;8364;-77
2022/05/29 08:46:48;;;;;;;;;;;;;;;20.86;42.67;100505.09;5007278;28;7216;-77
2022/05/29 08:49:20;;;;;;;;;;;;;;;20.75;42.86;100511.88;5042843;28;7947;-77
2022/05/29 08:52:36;;;;;;;;;;;;;;;20.85;42.55;100508.53;5041528;28;7026;-77
2022/05/29 08:55:19;;;;;;;;;;;;;;;20.90;42.31;100511.16;5024329;28;6811;-77
2022/05/29 08:58:26;;;;;;;;;;;;;;;20.92;42.20;100512.91;5039351;28;6815;-77
2022/05/29 09:01:34;;;;;;;;;;;;;;;20.92;41.54;100499.91;5014322;28;7054;-77
2022/05/29 09:04:10;;;;;;;;;;;;;;;20.65;41.13;100500.53;5040612;28;8533;-77
2022/05/29 09:06:52;;;;;;;;;;;;;;;20.37;41.18;100500.31;5042930;28;6811;-77
2022/05/29 09:09:35;;;;;;;;;;;;;;;20.12;41.35;100497.44;5036437;28;6815;-77
2022/05/29 09:12:10;;;;;;;;;;;;;;;19.94;41.30;100505.94;5040371;28;6828;-76
2022/05/29 09:14:51;;;;;;;;;;;;;;;19.75;41.65;100502.22;5025503;28;6808;-76
2022/05/29 09:17:42;;;;;;;;;;;;;;;19.62;41.85;100499.47;5024717;28;7549;-76
2022/05/29 09:20:37;;;;;;;;;;;;;;;19.56;42.14;100500.28;5041954;28;7856;-76
2022/05/29 09:23:08;;;;;;;;;;;;;;;19.57;41.57;100499.41;5027741;28;6831;-77
2022/05/29 09:25:45;;;;;;;;;;;;;;;19.62;41.88;100490.81;5035712;28;6891;-77
2022/05/29 09:28:24;;;;;;;;;;;;;;;19.87;42.41;100488.47;5018374;28;7355;-77
2022/05/29 09:30:54;;;;;;;;;;;;;;;20.56;42.48;100475.28;5025647;28;6819;-77
2022/05/29 09:33:26;;;;;;;;;;;;;;;21.64;42.18;100466.38;5001196;28;6816;-77
2022/05/29 09:36:32;;;;;;;;;;;;;;;23.08;40.58;100460.41;5009364;28;7242;-77
2022/05/29 09:39:28;;;;;;;;;;;;;;;24.65;38.96;100461.25;5003868;28;7225;-77
2022/05/29 09:42:05;;;;;;;;;;;;;;;25.47;36.39;100454.22;4984089;28;8486;-77
2022/05/29 09:44:32;;;;;;;;;;;;;;;25.42;35.53;100456.06;5023310;28;7003;-77
2022/05/29 09:49:40;;;;;;;;;;;;;;;25.30;35.48;100452.72;5040000;28;6811;-77
2022/05/29 09:50:09;;;;;;;;;;;;;;;25.76;35.43;100453.00;5024718;28;6800;-77
2022/05/29 09:52:43;;;;;;;;;;;;;;;26.60;35.04;100449.91;5004430;28;8742;-77
2022/05/29 09:55:31;;;;;;;;;;;;;;;27.52;33.31;100442.03;5021728;28;7179;-77
2022/05/29 09:58:17;;;;;;;;;;;;;;;27.59;32.64;100448.94;4989296;28;7368;-77
2022/05/29 10:01:05;;;;;;;;;;;;;;;26.91;32.06;100443.25;5022708;28;7265;-77
2022/05/29 10:03:52;;;;;;;;;;;;;;;26.00;32.48;100446.50;5014732;28;6796;-77
2022/05/29 10:06:21;;;;;;;;;;;;;;;25.21;32.76;100444.94;5024335;28;6816;-77
2022/05/29 10:08:49;;;;;;;;;;;;;;;24.74;33.61;100444.53;5006628;28;7256;-77
2022/05/29 10:11:22;;;;;;;;;;;;;;;24.49;33.89;100436.94;4994412;28;7353;-77
2022/05/29 10:13:50;;;;;;;;;;;;;;;24.55;33.37;100442.09;5001098;28;6974;-77
2022/05/29 10:16:37;;;;;;;;;;;;;;;24.68;33.52;100430.63;5005991;28;6967;-77
2022/05/29 10:19:11;;;;;;;;;;;;;;;24.77;32.98;100434.03;5000033;28;6966;-77
2022/05/29 10:21:50;;;;;;;;;;;;;;;24.82;33.39;100422.66;5021077;28;8451;-77
2022/05/29 10:24:35;;;;;;;;;;;;;;;24.92;32.78;100426.03;5020764;28;7991;-77
2022/05/29 10:27:04;;;;;;;;;;;;;;;24.89;32.91;100433.06;5016240;28;7730;-77
2022/05/29 10:29:37;;;;;;;;;;;;;;;24.73;32.52;100427.97;5014335;28;7252;-77
2022/05/29 10:32:22;;;;;;;;;;;;;;;24.59;32.93;100420.25;5038525;28;6808;-77
2022/05/29 10:34:48;;;;;;;;;;;;;;;24.57;32.41;100416.75;5029124;28;6811;-76
2022/05/29 10:37:37;;;;;;;;;;;;;;;24.52;32.52;100426.44;5017056;28;6876;-76
2022/05/29 10:40:28;;;;;;;;;;;;;;;24.44;32.47;100425.63;5033314;28;6811;-76
2022/05/29 10:43:00;;;;;;;;;;;;;;;24.24;32.35;100422.31;5018723;28;8874;-76
2022/05/29 10:45:41;;;;;;;;;;;;;;;24.00;32.50;100429.44;5037001;28;7239;-76
2022/05/29 10:48:37;;;;;;;;;;;;;;;23.69;32.33;100431.38;5032322;28;6804;-76
2022/05/29 10:51:09;;;;;;;;;;;;;;;23.31;32.88;100435.94;5038153;28;6895;-76
2022/05/29 10:54:23;;;;;;;;;;;;;;;22.85;32.62;100437.78;5018768;28;8429;-77
2022/05/29 10:57:07;;;;;;;;;;;;;;;22.34;32.95;100436.06;5013605;28;7179;-76
2022/05/29 10:59:55;;;;;;;;;;;;;;;21.92;33.50;100437.78;5019040;28;6820;-76
2022/05/29 11:03:39;;;;;;;;;;;;;;;21.45;33.78;100431.53;4998510;28;6891;-75
2022/05/29 11:06:40;;;;;;;;;;;;;;;20.98;34.40;100431.34;4980003;28;6824;-75
2022/05/29 11:09:36;;;;;;;;;;;;;;;20.86;35.14;100426.94;5027820;28;8721;-75
2022/05/29 11:12:51;;;;;;;;;;;;;;;20.85;35.09;100429.53;5033966;28;6988;-75
2022/05/29 11:15:34;;;;;;;;;;;;;;;21.01;35.55;100422.66;5019917;28;7046;-75
2022/05/29 11:18:38;;;;;;;;;;;;;;;21.31;35.17;100418.44;5034339;28;6906;-75
2022/05/29 11:21:28;;;;;;;;;;;;;;;21.61;35.18;100411.59;5024951;28;6827;-75
2022/05/29 11:25:06;;;;;;;;;;;;;;;21.90;35.01;100408.22;5026077;28;7031;-75
2022/05/29 11:28:05;;;;;;;;;;;;;;;22.23;34.46;100400.41;5000417;28;8605;-75
2022/05/29 11:30:55;;;;;;;;;;;;;;;22.49;34.04;100408.22;5019923;28;6828;-76
2022/05/29 11:33:36;;;;;;;;;;;;;;;23.02;34.57;100393.31;5024475;28;6823;-76
2022/05/29 11:36:16;;;;;;;;;;;;;;;23.98;33.57;100384.09;5017631;28;7026;-75
2022/05/29 11:38:50;;;;;;;;;;;;;;;25.19;33.17;100378.53;5041575;28;6883;-76
2022/05/29 11:41:30;;;;;;;;;;;;;;;25.87;31.66;100372.31;5022108;28;6815;-76
2022/05/29 11:44:28;;;;;;;;;;;;;;;25.91;31.05;100368.78;5009373;28;8308;-76
2022/05/29 11:53:47;;;;;;;;;;;;;;;28.31;29.47;100340.13;4986245;28;7331;-77
2022/05/29 11:56:33;;;;;;;;;;;;;;;28.23;29.00;100350.00;4995198;28;6965;-77
2022/05/29 11:59:10;;;;;;;;;;;;;;;27.77;28.77;100337.06;5018470;28;7672;-77
2022/05/29 12:01:49;;;;;;;;;;;;;;;27.10;28.71;100346.47;5023715;28;6815;-77
2022/05/29 12:04:49;;;;;;;;;;;;;;;26.66;29.40;100342.97;5015300;28;6803;-77
2022/05/29 12:07:47;;;;;;;;;;;;;;;26.89;30.02;100342.53;5029234;28;6807;-77
2022/05/29 12:10:23;;;;;;;;;;;;;;;27.76;29.80;100335.34;5030925;28;7083;-77
2022/05/29 12:13:07;;;;;;;;;;;;;;;28.64;29.76;100321.63;5038244;28;6904;-77
2022/05/29 12:15:33;;;;;;;;;;;;;;;29.42;28.31;100321.94;4994183;28;6811;-77
2022/05/29 12:18:20;;;;;;;;;;;;;;;29.84;27.65;100314.47;5026762;28;7903;-77
2022/05/29 12:20:55;;;;;;;;;;;;;;;29.63;26.70;100312.50;4987352;28;8488;-77
2022/05/29 12:23:38;;;;;;;;;;;;;;;29.37;27.04;100315.97;5013838;28;6998;-77
2022/05/29 12:26:35;;;;;;;;;;;;;;;29.36;27.02;100306.34;5002079;28;7022;-77
2022/05/29 12:29:11;;;;;;;;;;;;;;;29.39;26.47;100322.06;5016463;28;7395;-77
2022/05/29 12:31:47;;;;;;;;;;;;;;;29.15;26.28;100311.34;5038421;28;7022;-79
2022/05/29 12:34:28;;;;;;;;;;;;;;;28.47;26.65;100311.56;5004459;28;6815;-77
2022/05/29 12:36:57;;;;;;;;;;;;;;;27.69;26.70;100316.19;5034925;28;7702;-77
2022/05/29 12:39:31;;;;;;;;;;;;;;;27.04;27.32;100315.03;5030947;28;7021;-77
2022/05/29 12:42:29;;;;;;;;;;;;;;;26.82;28.11;100314.59;5015224;28;7676;-76
2022/05/29 12:45:25;;;;;;;;;;;;;;;26.93;27.94;100312.63;5022725;28;7204;-74
2022/05/29 12:48:40;;;;;;;;;;;;;;;26.91;28.32;100309.16;5024445;28;7392;-74
2022/05/29 12:52:02;;;;;;;;;;;;;;;27.39;28.25;100301.97;5034585;28;6903;-76
2022/05/29 12:55:05;;;;;;;;;;;;;;;28.22;27.56;100304.31;5020862;28;6961;-75
2022/05/29 12:57:44;;;;;;;;;;;;;;;28.66;26.62;100306.63;5019687;28;8701;-76
2022/05/29 13:00:47;;;;;;;;;;;;;;;28.80;26.88;100298.31;4997025;28;7122;-77
2022/05/29 13:03:38;;;;;;;;;;;;;;;29.08;26.45;100296.66;5038363;28;8423;-76
2022/05/29 13:06:18;;;;;;;;;;;;;;;29.51;26.55;100294.44;5015772;28;7173;-76
2022/05/29 13:09:17;;;;;;;;;;;;;;;29.71;25.43;100306.13;5017594;28;7292;-75
2022/05/29 13:11:57;;;;;;;;;;;;;;;28.93;25.80;100327.84;5038649;28;7174;-76
2022/05/29 13:14:25;;;;;;;;;;;;;;;27.60;26.39;100348.00;5019577;28;7156;-76
2022/05/29 13:17:19;;;;;;;;;;;;;;;25.98;28.20;100347.66;5034004;28;6943;-76
2022/05/29 13:19:56;;;;;;;;;;;;;;;24.27;29.88;100348.06;5036938;28;6836;-76
2022/05/29 13:23:02;;;;;;;;;;;;;;;22.77;31.08;100361.16;5014351;28;6922;-77
2022/05/29 13:26:12;;;;;;;;;;;;;;;21.33;32.85;100367.19;5024312;28;6982;-76
2022/05/29 13:28:41;;;;;;;;;;;;;;;20.29;34.91;100364.03;5017292;28;6835;-76
2022/05/29 13:31:08;;;;;;;;;;;;;;;19.55;36.05;100373.75;5039430;28;6980;-78
2022/05/29 13:34:10;;;;;;;;;;;;;;;19.00;36.60;100376.56;5021794;28;7552;-77
2022/05/29 13:36:43;;;;;;;;;;;;;;;18.57;37.90;100371.66;5007625;28;6827;-77
2022/05/29 13:39:29;;;;;;;;;;;;;;;18.32;39.00;100368.66;5016157;28;6903;-77
2022/05/29 13:42:08;;;;;;;;;;;;;;;18.16;39.70;100368.44;5013664;28;7787;-77
2022/05/29 13:44:41;;;;;;;;;;;;;;;18.10;39.63;100368.34;5026198;28;9867;-77
2022/05/29 13:47:18;;;;;;;;;;;;;;;18.20;41.48;100371.94;5003027;28;6841;-76
2022/05/29 13:50:27;;;;;;;;;;;;;;;18.39;41.63;100362.72;5025013;28;7024;-76
2022/05/29 13:53:03;;;;;;;;;;;;;;;18.67;42.50;100360.53;5001208;28;7415;-76
2022/05/29 13:55:34;;;;;;;;;;;;;;;18.93;43.18;100354.84;5039008;28;6970;-76
2022/05/29 14:04:42;;;;;;;;;;;;;;;20.17;43.93;100346.59;5020850;28;6907;-77
2022/05/29 14:07:08;;;;;;;;;;;;;;;20.61;41.88;100346.03;5005249;28;6828;-77
2022/05/29 14:09:33;;;;;;;;;;;;;;;20.80;41.18;100346.97;5018731;28;6780;-77
2022/05/29 14:12:12;;;;;;;;;;;;;;;20.88;40.41;100343.59;5014892;28;6933;-77
2022/05/29 14:14:50;;;;;;;;;;;;;;;20.79;39.94;100347.84;5002877;28;6835;-77
2022/05/29 14:17:36;;;;;;;;;;;;;;;20.65;39.72;100349.53;5006160;28;7189;-77